Time;durP1;ratioP1;P1;durP2;ratioP2;P2;SDS_P1;SDS_P2;PMS_P1;PMS_P2;Temp;Humidity;BMP_temperature;BMP_pressure;BME280_temperature;BME280_humidity;BME280_pressure;Samples;Min_cycle;Max_cycle;Signal;HPM_P1;HPM_P2
2022/10/06 00:01:47;;;;;;;54.10;33.70;;;;;;;7.93;81.96;99470.23;89489;1284;25953;-81
2022/10/06 00:03:48;;;;;;;52.30;32.50;;;;;;;7.97;81.88;99472.02;88822;1284;97669;-80
2022/10/06 00:05:50;;;;;;;56.00;34.60;;;;;;;8.02;81.97;99476.30;89183;1284;22651;-80
2022/10/06 00:07:52;;;;;;;57.50;34.20;;;;;;;8.06;82.39;99480.19;89330;1281;23118;-80
2022/10/06 00:09:53;;;;;;;53.80;32.20;;;;;;;8.08;82.08;99480.46;89204;1280;97531;-80
2022/10/06 00:11:55;;;;;;;70.40;34.90;;;;;;;8.11;81.99;99485.45;89461;1281;22573;-81
2022/10/06 00:13:57;;;;;;;53.70;33.00;;;;;;;8.14;82.27;99486.59;89411;1280;22601;-81
2022/10/06 00:16:00;;;;;;;51.50;32.10;;;;;;;8.16;82.03;99486.34;89321;1281;97572;-80
2022/10/06 00:18:03;;;;;;;59.30;32.80;;;;;;;8.16;81.93;99483.19;89106;1283;22640;-80
2022/10/06 00:20:07;;;;;;;59.90;31.40;;;;;;;8.14;82.01;99476.95;89570;1281;22579;-80
2022/10/06 00:22:08;;;;;;;57.90;32.40;;;;;;;8.14;81.73;99481.16;89273;1281;98472;-81
2022/10/06 00:24:10;;;;;;;58.70;31.40;;;;;;;8.12;81.62;99480.89;89126;1283;22585;-80
2022/10/06 00:26:15;;;;;;;50.90;31.80;;;;;;;8.08;81.68;99479.21;89424;1283;22728;-80
2022/10/06 00:28:17;;;;;;;68.50;33.30;;;;;;;8.09;81.70;99483.40;89171;1280;97561;-80
2022/10/06 00:30:22;;;;;;;61.40;32.70;;;;;;;8.07;81.73;99480.15;89668;1280;22583;-80
2022/10/06 00:32:24;;;;;;;54.90;31.80;;;;;;;8.06;81.93;99485.42;89484;1280;22564;-80
2022/10/06 00:34:26;;;;;;;56.80;34.10;;;;;;;8.05;81.81;99484.59;89268;1280;98293;-79
2022/10/06 00:36:28;;;;;;;58.80;33.50;;;;;;;8.04;81.96;99493.73;89336;1280;22548;-80
2022/10/06 00:38:31;;;;;;;53.80;29.90;;;;;;;8.01;82.09;99491.34;89547;1277;25540;-80
2022/10/06 00:40:33;;;;;;;55.40;31.20;;;;;;;7.98;81.92;99491.06;89412;1277;97740;-80
2022/10/06 00:42:48;;;;;;;65.60;31.80;;;;;;;7.97;82.12;99490.94;89659;1274;22582;-80
2022/10/06 00:44:57;;;;;;;46.40;28.70;;;;;;;7.95;81.90;99495.89;89482;1275;97825;-80
2022/10/06 00:46:59;;;;;;;53.00;29.50;;;;;;;7.92;81.91;99497.39;89716;1277;22629;-82
2022/10/06 00:49:16;;;;;;;48.10;29.40;;;;;;;7.89;82.11;99495.89;89394;1277;22607;-81
2022/10/06 00:51:21;;;;;;;48.10;29.70;;;;;;;7.87;81.71;99494.89;89244;1277;97716;-80
2022/10/06 00:53:26;;;;;;;51.90;29.40;;;;;;;7.87;81.99;99500.33;89974;1274;22581;-80
2022/10/06 00:55:31;;;;;;;51.70;28.90;;;;;;;7.86;81.97;99501.05;89846;1277;22568;-82
2022/10/06 00:57:37;;;;;;;42.40;29.30;;;;;;;7.84;82.12;99504.77;89916;1275;97427;-81
2022/10/06 00:59:48;;;;;;;50.40;29.50;;;;;;;7.84;82.01;99507.94;89716;1275;24246;-80
2022/10/06 01:02:10;;;;;;;47.60;28.70;;;;;;;7.81;82.01;99511.17;89828;1277;22545;-80
2022/10/06 01:04:14;;;;;;;48.10;26.70;;;;;;;7.79;81.80;99510.36;89652;1274;98524;-82
2022/10/06 01:06:17;;;;;;;41.00;27.10;;;;;;;7.75;81.71;99512.22;89635;1277;22670;-78
2022/10/06 01:08:22;;;;;;;51.90;28.30;;;;;;;7.71;81.95;99511.28;89633;1277;22582;-81
2022/10/06 01:10:23;;;;;;;42.60;26.70;;;;;;;7.64;81.97;99518.98;89662;1277;97454;-81
2022/10/06 01:12:29;;;;;;;45.80;26.70;;;;;;;7.60;81.92;99522.42;89626;1277;22574;-79
2022/10/06 01:14:32;;;;;;;43.40;25.40;;;;;;;7.56;81.63;99525.50;89643;1277;22603;-80
2022/10/06 01:16:41;;;;;;;46.40;25.40;;;;;;;7.50;81.78;99522.67;89588;1275;99072;-81
2022/10/06 01:18:46;;;;;;;41.90;26.80;;;;;;;7.45;81.58;99525.42;89964;1274;22617;-80
2022/10/06 01:21:12;;;;;;;45.00;25.80;;;;;;;7.42;81.72;99525.89;89805;1277;97495;-81
2022/10/06 01:23:18;;;;;;;53.40;27.40;;;;;;;7.39;81.72;99531.73;89541;1277;22572;-82
2022/10/06 01:25:23;;;;;;;46.50;25.60;;;;;;;7.37;81.56;99534.23;89662;1277;22569;-80
2022/10/06 01:27:28;;;;;;;41.80;26.00;;;;;;;7.31;81.78;99535.76;89809;1274;97547;-79
2022/10/06 01:29:32;;;;;;;41.80;26.10;;;;;;;7.25;81.72;99535.06;89509;1277;22586;-80
2022/10/06 01:31:36;;;;;;;39.20;25.60;;;;;;;7.18;81.82;99533.13;89434;1277;22539;-79
2022/10/06 01:33:38;;;;;;;43.90;25.20;;;;;;;7.15;81.60;99537.77;89479;1277;97288;-81
2022/10/06 01:35:40;;;;;;;40.80;24.30;;;;;;;7.10;81.56;99538.05;89342;1277;22506;-81
2022/10/06 01:37:41;;;;;;;46.30;26.40;;;;;;;7.07;81.79;99539.16;89403;1277;23142;-78
2022/10/06 01:39:44;;;;;;;42.80;25.10;;;;;;;7.07;81.76;99541.09;89376;1277;97637;-78
2022/10/06 01:41:46;;;;;;;36.60;24.20;;;;;;;7.06;81.65;99542.86;89384;1277;24930;-80
2022/10/06 01:43:49;;;;;;;41.30;24.20;;;;;;;7.04;81.96;99538.02;89390;1280;23372;-80
2022/10/06 01:45:57;;;;;;;38.70;23.80;;;;;;;7.03;82.03;99538.41;89381;1277;97327;-81
2022/10/06 01:47:58;;;;;;;43.00;24.60;;;;;;;7.01;81.98;99537.73;89433;1277;25355;-80
2022/10/06 01:50:00;;;;;;;38.40;23.90;;;;;;;6.99;81.84;99540.59;89487;1277;22620;-81
2022/10/06 01:52:04;;;;;;;32.90;22.80;;;;;;;6.98;81.80;99540.42;89334;1274;97291;-80
2022/10/06 01:54:06;;;;;;;40.40;22.80;;;;;;;6.96;82.08;99539.27;89376;1275;22577;-81
2022/10/06 01:56:08;;;;;;;32.50;22.30;;;;;;;6.94;81.98;99543.67;89429;1277;22623;-80
2022/10/06 01:58:12;;;;;;;41.40;24.00;;;;;;;6.92;81.99;99546.70;89029;1277;97661;-80
2022/10/06 02:00:14;;;;;;;44.40;23.40;;;;;;;6.90;81.87;99546.73;89485;1275;22568;-79
2022/10/06 02:02:18;;;;;;;32.80;22.20;;;;;;;6.89;82.15;99547.64;89410;1277;22595;-80
2022/10/06 02:04:20;;;;;;;31.50;22.40;;;;;;;6.88;82.04;99551.84;89243;1277;97702;-81
2022/10/06 02:06:25;;;;;;;37.70;22.40;;;;;;;6.87;82.03;99553.29;89415;1277;22538;-80
2022/10/06 02:08:27;;;;;;;33.80;21.60;;;;;;;6.85;82.31;99554.20;89406;1276;24198;-80
2022/10/06 02:10:29;;;;;;;35.70;20.60;;;;;;;6.83;81.79;99549.35;89347;1277;97594;-79
2022/10/06 02:12:31;;;;;;;31.10;20.60;;;;;;;6.79;82.07;99552.60;89477;1276;22551;-79
2022/10/06 02:14:33;;;;;;;37.50;22.90;;;;;;;6.76;82.09;99555.81;89369;1277;22547;-79
2022/10/06 02:16:35;;;;;;;30.70;21.20;;;;;;;6.74;81.93;99558.14;89419;1277;97324;-79
2022/10/06 02:18:37;;;;;;;30.30;20.90;;;;;;;6.74;82.10;99561.09;89389;1277;22701;-81
2022/10/06 02:20:39;;;;;;;33.00;21.10;;;;;;;6.73;82.14;99559.89;89472;1277;24364;-81
2022/10/06 02:22:42;;;;;;;36.10;21.30;;;;;;;6.72;82.21;99563.94;89459;1274;97402;-80
2022/10/06 02:24:54;;;;;;;31.30;21.00;;;;;;;6.70;82.08;99562.95;89442;1277;22621;-79
2022/10/06 02:26:56;;;;;;;37.80;19.20;;;;;;;6.68;82.00;99560.01;89375;1277;97832;-80
2022/10/06 02:28:58;;;;;;;31.00;19.30;;;;;;;6.68;82.21;99558.27;89477;1277;22683;-81
2022/10/06 02:31:07;;;;;;;32.80;20.40;;;;;;;6.68;82.18;99559.85;89740;1275;22606;-80
2022/10/06 02:33:10;;;;;;;29.60;19.60;;;;;;;6.68;82.14;99558.79;89583;1277;97497;-80
2022/10/06 02:35:13;;;;;;;27.40;19.70;;;;;;;6.66;82.17;99561.80;89442;1277;22559;-80
2022/10/06 02:37:15;;;;;;;35.30;19.10;;;;;;;6.65;82.25;99566.17;89773;1274;22617;-81
2022/10/06 02:39:17;;;;;;;32.00;19.60;;;;;;;6.64;82.32;99565.15;89313;1277;97761;-81
2022/10/06 02:41:19;;;;;;;29.40;19.70;;;;;;;6.63;82.28;99566.05;89302;1277;25252;-81
2022/10/06 02:43:21;;;;;;;33.90;19.30;;;;;;;6.64;82.28;99565.84;89419;1278;23411;-80
2022/10/06 02:45:22;;;;;;;28.30;18.20;;;;;;;6.64;82.39;99570.20;89404;1277;97475;-82
2022/10/06 02:47:24;;;;;;;24.10;18.40;;;;;;;6.63;82.49;99569.89;89573;1277;26648;-82
2022/10/06 02:49:27;;;;;;;30.70;18.50;;;;;;;6.62;82.37;99566.60;89594;1277;22537;-80
2022/10/06 02:51:31;;;;;;;31.10;19.10;;;;;;;6.61;82.56;99563.13;89552;1277;97734;-81
2022/10/06 02:53:34;;;;;;;27.60;18.90;;;;;;;6.60;82.37;99565.93;89688;1277;25250;-80
2022/10/06 02:55:35;;;;;;;27.80;17.70;;;;;;;6.59;82.21;99562.30;89753;1274;22492;-82
2022/10/06 02:57:38;;;;;;;27.40;18.30;;;;;;;6.56;82.42;99560.98;89148;1280;97495;-80
2022/10/06 02:59:41;;;;;;;37.10;18.10;;;;;;;6.58;82.44;99568.08;89489;1277;22897;-80
2022/10/06 03:01:43;;;;;;;32.10;18.20;;;;;;;6.58;82.39;99563.73;89489;1274;22822;-80
2022/10/06 03:03:47;;;;;;;27.30;17.80;;;;;;;6.59;82.52;99564.23;89331;1274;97808;-82
2022/10/06 03:06:20;;;;;;;33.80;18.60;;;;;;;6.58;82.31;99563.19;89645;1277;24206;-80
2022/10/06 03:08:23;;;;;;;34.90;17.40;;;;;;;6.56;82.53;99570.91;90062;1275;22583;-81
2022/10/06 03:10:25;;;;;;;38.40;19.10;;;;;;;6.53;82.31;99577.45;89212;1277;97630;-81
2022/10/06 03:12:27;;;;;;;29.10;18.10;;;;;;;6.49;82.36;99575.26;89499;1275;22569;-80
2022/10/06 03:14:30;;;;;;;33.50;17.10;;;;;;;6.48;82.37;99579.13;89266;1278;24596;-81
2022/10/06 03:16:41;;;;;;;34.30;18.50;;;;;;;6.47;82.36;99582.65;89491;1277;97900;-81
2022/10/06 03:18:44;;;;;;;;;;;;;;;6.44;82.27;99580.08;89725;1277;22658;-80
2022/10/06 03:20:45;;;;;;;41.20;18.10;;;;;;;6.41;82.37;99579.45;89936;1276;22521;-82
2022/10/06 03:22:47;;;;;;;35.30;18.70;;;;;;;6.41;82.51;99580.33;90020;1271;25229;-80
2022/10/06 03:24:49;;;;;;;46.00;19.00;;;;;;;6.40;82.31;99578.42;89856;1271;22547;-79
2022/10/06 03:26:50;;;;;;;47.50;18.10;;;;;;;6.36;82.43;99577.83;89749;1272;97882;-80
2022/10/06 03:28:53;;;;;;;51.40;18.60;;;;;;;6.31;82.37;99581.94;89861;1271;22554;-81
2022/10/06 03:31:04;;;;;;;38.90;18.30;;;;;;;6.27;82.28;99577.33;90105;1271;22555;-80
2022/10/06 03:33:09;;;;;;;52.40;19.40;;;;;;;6.22;82.28;99579.69;90056;1271;97535;-82
2022/10/06 03:35:11;;;;;;;47.40;18.50;;;;;;;6.19;82.33;99575.20;89876;1271;23255;-82
2022/10/06 03:37:12;;;;;;;42.30;18.50;;;;;;;6.14;82.33;99579.30;89977;1271;24001;-80
2022/10/06 03:39:14;;;;;;;38.80;18.10;;;;;;;6.12;82.34;99577.98;89478;1274;97886;-81
2022/10/06 03:41:19;;;;;;;36.10;18.40;;;;;;;6.08;82.35;99579.77;89666;1271;22685;-81
2022/10/06 03:43:20;;;;;;;43.20;19.60;;;;;;;6.08;82.40;99583.98;89897;1271;22582;-80
2022/10/06 03:45:23;;;;;;;40.00;18.00;;;;;;;6.07;82.48;99579.98;89559;1271;98594;-80
2022/10/06 03:47:25;;;;;;;71.50;20.60;;;;;;;6.07;82.37;99583.66;89773;1271;22569;-80
2022/10/06 03:49:27;;;;;;;50.80;18.70;;;;;;;6.04;82.47;99584.41;89853;1271;24288;-81
2022/10/06 03:51:33;;;;;;;49.50;20.10;;;;;;;6.00;82.39;99579.07;89490;1271;98249;-80
2022/10/06 03:53:35;;;;;;;42.30;18.10;;;;;;;5.97;82.40;99580.86;90036;1269;22590;-81
2022/10/06 03:55:37;;;;;;;65.90;20.90;;;;;;;5.94;82.40;99582.28;89890;1274;22534;-82
2022/10/06 03:57:38;;;;;;;57.30;18.90;;;;;;;5.92;82.27;99580.95;89758;1271;97778;-81
2022/10/06 03:59:41;;;;;;;59.00;17.60;;;;;;;5.90;82.39;99582.04;89700;1271;22665;-80
2022/10/06 04:01:45;;;;;;;47.10;17.10;;;;;;;5.87;82.39;99581.73;89681;1271;22591;-81
2022/10/06 04:03:47;;;;;;;40.60;17.70;;;;;;;5.86;82.36;99581.23;89454;1271;97925;-80
2022/10/06 04:06:11;;;;;;;51.00;18.00;;;;;;;5.82;82.44;99586.20;89808;1271;23002;-81
2022/10/06 04:08:13;;;;;;;48.70;17.20;;;;;;;5.80;82.47;99584.30;89875;1271;22562;-80
2022/10/06 04:10:15;;;;;;;40.50;17.90;;;;;;;5.79;82.47;99588.86;89520;1271;97629;-80
2022/10/06 04:12:17;;;;;;;49.40;16.90;;;;;;;5.79;82.42;99591.83;89678;1271;23421;-81
2022/10/06 04:14:18;;;;;;;69.50;17.80;;;;;;;5.78;82.52;99587.31;89888;1271;22573;-80
2022/10/06 04:16:24;;;;;;;53.80;18.70;;;;;;;5.76;82.40;99591.00;89666;1271;97786;-81
2022/10/06 04:18:27;;;;;;;46.70;17.90;;;;;;;5.75;82.44;99592.44;89729;1271;22534;-81
2022/10/06 04:20:28;;;;;;;48.20;17.30;;;;;;;5.74;82.58;99588.42;89748;1271;22676;-81
2022/10/06 04:22:31;;;;;;;31.80;16.80;;;;;;;5.74;82.56;99587.73;89465;1271;97641;-81
2022/10/06 04:24:33;;;;;;;37.70;16.20;;;;;;;5.75;82.53;99589.81;89838;1271;22554;-80
2022/10/06 04:26:40;;;;;;;51.20;19.10;;;;;;;5.75;82.66;99593.46;89759;1271;22548;-81
2022/10/06 04:28:45;;;;;;;44.00;17.50;;;;;;;5.75;82.62;99592.61;89550;1274;98306;-80
2022/10/06 04:30:58;;;;;;;45.20;17.50;;;;;;;5.74;82.74;99595.58;89829;1271;22493;-80
2022/10/06 04:32:59;;;;;;;43.70;18.10;;;;;;;5.75;82.66;99594.53;89687;1271;97911;-80
2022/10/06 04:35:01;;;;;;;44.00;17.50;;;;;;;5.76;82.78;99594.50;89646;1274;22552;-84
2022/10/06 04:37:04;;;;;;;41.80;17.60;;;;;;;5.76;82.73;99595.02;89579;1274;23216;-82
2022/10/06 04:39:09;;;;;;;63.60;18.00;;;;;;;5.76;82.76;99592.41;89453;1274;98406;-82
2022/10/06 04:41:13;;;;;;;57.40;16.80;;;;;;;5.79;82.76;99594.96;89985;1271;22554;-81
2022/10/06 04:43:15;;;;;;;40.80;17.60;;;;;;;5.78;82.65;99598.83;89952;1271;22550;-81
2022/10/06 04:45:17;;;;;;;59.90;18.10;;;;;;;5.76;82.73;99603.92;89303;1271;97620;-81
2022/10/06 04:47:19;;;;;;;52.50;17.00;;;;;;;5.74;82.58;99602.04;89334;1274;22737;-81
2022/10/06 04:49:20;;;;;;;38.50;17.00;;;;;;;5.71;82.61;99598.95;89588;1271;24021;-81
2022/10/06 04:51:26;;;;;;;47.90;17.70;;;;;;;5.70;82.66;99603.67;89311;1271;98543;-82
2022/10/06 04:53:31;;;;;;;62.60;19.60;;;;;;;5.69;82.82;99604.56;89841;1271;22497;-81
2022/10/06 04:55:33;;;;;;;49.60;21.40;;;;;;;5.70;82.77;99605.42;89525;1274;22693;-82
2022/10/06 04:57:35;;;;;;;44.80;20.20;;;;;;;5.71;82.99;99606.45;89750;1272;97823;-80
2022/10/06 05:01:58;;;;;;;43.90;19.80;;;;;;;5.76;82.91;99616.11;89406;1274;22552;-82
2022/10/06 05:04:03;;;;;;;46.30;22.20;;;;;;;5.79;83.09;99615.20;89600;1271;97754;-80
2022/10/06 05:06:14;;;;;;;46.60;20.80;;;;;;;5.82;83.09;99613.92;89941;1269;24248;-80
2022/10/06 05:08:15;;;;;;;;;;;;;;;5.80;83.12;99604.02;89776;1271;22559;-80
2022/10/06 05:10:18;;;;;;;67.40;20.50;;;;;;;5.86;83.34;99612.30;89632;1271;83939;-78
2022/10/06 05:12:20;;;;;;;46.60;19.30;;;;;;;5.86;83.11;99612.80;89920;1271;22575;-81
2022/10/06 05:14:22;;;;;;;47.10;20.40;;;;;;;5.88;83.28;99616.25;89815;1271;22700;-80
2022/10/06 05:16:26;;;;;;;51.50;21.40;;;;;;;5.89;83.07;99615.88;89383;1271;98584;-81
2022/10/06 05:18:29;;;;;;;52.70;23.50;;;;;;;5.92;83.09;99617.92;89932;1271;25345;-80
2022/10/06 05:20:33;;;;;;;61.40;22.60;;;;;;;5.95;83.22;99620.31;89749;1271;22649;-81
2022/10/06 05:22:35;;;;;;;55.60;22.20;;;;;;;5.98;83.32;99622.02;89800;1268;97900;-81
2022/10/06 05:24:36;;;;;;;61.20;22.00;;;;;;;6.02;83.23;99620.56;89719;1271;22568;-80
2022/10/06 05:26:38;;;;;;;55.20;20.60;;;;;;;6.05;83.28;99622.94;89408;1271;25245;-80
2022/10/06 05:28:42;;;;;;;151.30;28.40;;;;;;;6.09;83.32;99628.79;89682;1271;97640;-81
2022/10/06 05:31:14;;;;;;;144.60;28.10;;;;;;;6.11;83.43;99624.92;89637;1271;22548;-80
2022/10/06 05:33:17;;;;;;;156.80;32.20;;;;;;;6.19;83.45;99630.00;89957;1271;98037;-82
2022/10/06 05:35:18;;;;;;;197.70;36.60;;;;;;;6.24;83.72;99630.60;90028;1270;22489;-80
2022/10/06 05:37:20;;;;;;;207.00;32.30;;;;;;;6.29;83.61;99631.38;89675;1271;22647;-81
2022/10/06 05:39:22;;;;;;;183.70;33.20;;;;;;;6.34;83.46;99635.80;89337;1271;97830;-81
2022/10/06 05:41:27;;;;;;;199.90;33.90;;;;;;;6.38;83.54;99637.82;89580;1271;25244;-81
2022/10/06 05:43:31;;;;;;;194.40;34.20;;;;;;;6.43;83.84;99640.00;89729;1271;25209;-80
2022/10/06 05:45:33;;;;;;;170.30;31.50;;;;;;;6.47;83.78;99642.34;89686;1272;98014;-80
2022/10/06 05:47:36;;;;;;;127.00;33.30;;;;;;;6.53;83.78;99638.92;89304;1274;25220;-80
2022/10/06 05:49:40;;;;;;;141.00;33.60;;;;;;;6.58;83.76;99637.58;89949;1271;22567;-81
2022/10/06 05:51:44;;;;;;;159.70;35.00;;;;;;;6.64;83.63;99637.44;90024;1271;98098;-80
2022/10/06 05:53:55;;;;;;;137.60;33.40;;;;;;;6.72;83.93;99639.20;90025;1271;25282;-81
2022/10/06 05:56:10;;;;;;;124.90;33.50;;;;;;;6.80;83.94;99641.64;90021;1271;22569;-81
2022/10/06 05:58:16;;;;;;;123.00;32.40;;;;;;;6.89;83.92;99650.17;89984;1270;98023;-81
2022/10/06 06:00:20;;;;;;;109.00;30.30;;;;;;;6.96;83.98;99649.15;89874;1274;22546;-79
2022/10/06 06:02:21;;;;;;;135.70;34.30;;;;;;;7.04;84.17;99647.77;89632;1274;22682;-81
2022/10/06 06:04:23;;;;;;;145.40;31.70;;;;;;;7.12;84.18;99650.72;89842;1271;98552;-80
2022/10/06 06:06:33;;;;;;;105.40;32.10;;;;;;;7.20;84.18;99651.58;89575;1274;25900;-81
2022/10/06 06:08:36;;;;;;;150.50;29.50;;;;;;;7.29;84.18;99660.09;89598;1273;22559;-79
2022/10/06 06:10:37;;;;;;;93.70;28.20;;;;;;;7.38;84.32;99664.09;89532;1271;97853;-78
2022/10/06 06:12:39;;;;;;;65.10;25.80;;;;;;;7.47;84.28;99669.63;89643;1271;22560;-80
2022/10/06 06:17:05;;;;;;;41.60;24.70;;;;;;;7.68;84.45;99673.33;90008;1271;24317;-82
2022/10/06 06:19:11;;;;;;;45.90;25.50;;;;;;;7.78;84.50;99676.59;90269;1271;24818;-81
2022/10/06 06:21:17;;;;;;;37.50;25.10;;;;;;;7.88;84.64;99681.04;89879;1274;97493;-80
2022/10/06 06:23:20;;;;;;;39.40;23.50;;;;;;;7.99;84.45;99682.14;89819;1271;24161;-80
2022/10/06 06:25:21;;;;;;;48.90;25.90;;;;;;;8.09;84.33;99682.77;89835;1270;22568;-80
2022/10/06 06:27:23;;;;;;;39.80;23.40;;;;;;;8.19;84.70;99685.13;89533;1271;98209;-81
2022/10/06 06:29:25;;;;;;;38.20;23.60;;;;;;;8.31;84.40;99683.58;89863;1271;22618;-81
2022/10/06 06:31:30;;;;;;;39.60;21.80;;;;;;;8.43;84.62;99686.60;89782;1271;22749;-81
2022/10/06 06:33:38;;;;;;;45.20;22.20;;;;;;;8.54;84.50;99685.24;89541;1272;98360;-81
2022/10/06 06:35:40;;;;;;;39.00;21.30;;;;;;;8.67;84.40;99690.30;89998;1271;22538;-80
2022/10/06 06:37:45;;;;;;;37.80;20.40;;;;;;;8.79;84.73;99691.20;89615;1271;23195;-81
2022/10/06 06:39:50;;;;;;;32.90;18.40;;;;;;;8.89;84.39;99692.31;89556;1271;97737;-79
2022/10/06 06:41:52;;;;;;;31.50;18.40;;;;;;;9.01;84.81;99700.34;90077;1271;22735;-80
2022/10/06 06:43:56;;;;;;;25.50;16.10;;;;;;;9.13;84.35;99707.73;89854;1269;22588;-81
2022/10/06 06:46:03;;;;;;;24.20;13.90;;;;;;;9.25;84.56;99707.52;89676;1271;97899;-80
2022/10/06 06:48:05;;;;;;;20.30;13.90;;;;;;;9.36;84.43;99706.13;89856;1271;22555;-81
2022/10/06 06:50:09;;;;;;;27.70;13.50;;;;;;;9.47;84.54;99711.22;89802;1271;22676;-80
2022/10/06 06:52:11;;;;;;;26.70;15.70;;;;;;;9.58;84.44;99711.91;89488;1271;98031;-80
2022/10/06 06:54:13;;;;;;;17.90;14.20;;;;;;;9.68;84.51;99715.27;89975;1271;22872;-81
2022/10/06 06:56:15;;;;;;;27.50;13.80;;;;;;;9.80;84.41;99719.81;89836;1271;22567;-80
2022/10/06 06:58:19;;;;;;;25.40;14.00;;;;;;;9.91;84.39;99724.55;89636;1271;99225;-80
2022/10/06 07:00:22;;;;;;;21.90;13.90;;;;;;;10.02;84.31;99726.44;89845;1271;22688;-82
2022/10/06 07:02:39;;;;;;;25.70;12.10;;;;;;;10.11;84.23;99721.59;90360;1271;22676;-80
2022/10/06 07:04:44;;;;;;;25.00;13.20;;;;;;;10.24;84.23;99728.17;90056;1271;98237;-80
2022/10/06 07:06:57;;;;;;;25.40;12.50;;;;;;;10.33;84.32;99733.84;90128;1271;24100;-80
2022/10/06 07:08:59;;;;;;;20.40;11.70;;;;;;;10.44;84.37;99741.73;89637;1274;98642;-80
2022/10/06 07:11:18;;;;;;;24.20;11.00;;;;;;;10.55;84.26;99742.06;90005;1274;22583;-80
2022/10/06 07:13:20;;;;;;;20.60;10.80;;;;;;;10.67;84.24;99740.55;89892;1271;22587;-81
2022/10/06 07:25:06;;;;;;;20.90;8.40;;;;;;;11.37;83.81;99752.36;90053;1271;23569;-80
2022/10/06 07:27:09;;;;;;;17.00;8.00;;;;;;;11.49;83.64;99751.55;89719;1271;98309;-80
2022/10/06 07:29:12;;;;;;;12.60;7.90;;;;;;;11.58;83.47;99751.72;89944;1271;22682;-79
2022/10/06 07:31:17;;;;;;;19.50;8.00;;;;;;;11.65;83.40;99752.83;89734;1271;22569;-79
2022/10/06 07:33:19;;;;;;;15.40;8.20;;;;;;;11.73;83.28;99754.98;89817;1271;97677;-79
2022/10/06 07:35:22;;;;;;;21.70;8.60;;;;;;;11.81;83.24;99757.11;90017;1271;25359;-80
2022/10/06 07:37:24;;;;;;;17.40;8.00;;;;;;;11.91;83.25;99757.26;89805;1271;22599;-80
2022/10/06 07:39:26;;;;;;;13.90;8.30;;;;;;;12.00;83.25;99757.82;89694;1271;97693;-81
2022/10/06 07:41:30;;;;;;;20.30;8.20;;;;;;;12.08;83.33;99757.81;89929;1269;22570;-80
2022/10/06 07:43:33;;;;;;;21.10;8.80;;;;;;;12.17;83.06;99757.09;89993;1274;22656;-81
2022/10/06 07:45:38;;;;;;;11.30;8.10;;;;;;;12.25;83.06;99751.82;89901;1271;97814;-81
2022/10/06 07:47:40;;;;;;;14.20;7.90;;;;;;;12.34;83.10;99760.41;90097;1274;22702;-80
2022/10/06 07:49:45;;;;;;;15.10;8.10;;;;;;;12.43;83.06;99762.15;90100;1271;22588;-80
2022/10/06 07:51:48;;;;;;;15.70;7.20;;;;;;;12.53;82.81;99762.09;89953;1274;97767;-80
2022/10/06 07:53:50;;;;;;;12.00;8.00;;;;;;;12.63;82.84;99762.88;90057;1271;22624;-80
2022/10/06 07:55:52;;;;;;;15.70;8.00;;;;;;;12.71;82.91;99769.92;89558;1271;23031;-80
2022/10/06 07:57:53;;;;;;;12.90;7.40;;;;;;;12.76;82.63;99770.05;89802;1271;99617;-78
2022/10/06 07:59:55;;;;;;;17.30;7.50;;;;;;;12.83;82.58;99767.98;89565;1270;22663;-79
2022/10/06 08:01:59;;;;;;;20.10;7.80;;;;;;;12.91;82.68;99770.84;89396;1271;22547;-79
2022/10/06 08:04:05;;;;;;;17.20;7.20;;;;;;;12.97;82.41;99776.71;89175;1274;97662;-79
2022/10/06 08:06:17;;;;;;;11.40;7.60;;;;;;;13.05;82.49;99780.77;89469;1271;23113;-78
2022/10/06 08:08:18;;;;;;;11.30;7.10;;;;;;;13.14;82.53;99781.97;89503;1271;22726;-80
2022/10/06 08:10:20;;;;;;;13.00;6.90;;;;;;;13.22;82.31;99786.70;89269;1271;98946;-80
2022/10/06 08:12:32;;;;;;;10.90;7.00;;;;;;;13.30;82.36;99794.81;89517;1271;26022;-80
2022/10/06 08:14:39;;;;;;;16.90;7.10;;;;;;;13.37;82.25;99793.81;89727;1271;22625;-80
2022/10/06 08:16:41;;;;;;;15.50;8.00;;;;;;;13.47;82.11;99792.48;89263;1271;98000;-80
2022/10/06 08:18:54;;;;;;;16.30;7.80;;;;;;;13.55;82.15;99796.86;89374;1271;22852;-80
2022/10/06 08:20:57;;;;;;;17.90;8.60;;;;;;;13.65;82.09;99800.41;89567;1271;97777;-79
2022/10/06 08:22:58;;;;;;;17.50;9.30;;;;;;;13.79;82.35;99801.00;90174;1271;23843;-80
2022/10/06 08:25:02;;;;;;;16.60;9.40;;;;;;;13.99;82.13;99802.86;89960;1273;22663;-80
2022/10/06 08:27:04;;;;;;;26.80;8.20;;;;;;;14.16;81.83;99805.36;90040;1271;97856;-80
2022/10/06 08:29:07;;;;;;;19.40;8.20;;;;;;;14.32;81.95;99806.53;89992;1271;24334;-79
2022/10/06 08:31:18;;;;;;;19.00;7.70;;;;;;;14.47;81.84;99811.25;90027;1271;22636;-79
2022/10/06 08:33:19;;;;;;;9.00;7.20;;;;;;;14.68;81.94;99813.77;89793;1271;97569;-79
2022/10/06 08:35:23;;;;;;;17.60;8.80;;;;;;;14.86;81.59;99809.64;90165;1270;22562;-80
2022/10/06 08:37:32;;;;;;;18.10;8.10;;;;;;;15.04;81.55;99815.27;90227;1271;22578;-81
2022/10/06 08:39:34;;;;;;;23.40;8.60;;;;;;;15.21;81.32;99816.48;89977;1271;98226;-79
2022/10/06 08:41:47;;;;;;;19.80;7.80;;;;;;;15.36;81.08;99820.42;90092;1274;24377;-79
2022/10/06 08:43:58;;;;;;;17.00;9.00;;;;;;;15.55;81.06;99823.86;89986;1271;22567;-79
2022/10/06 08:46:02;;;;;;;14.70;7.90;;;;;;;15.60;80.97;99809.37;89983;1271;97791;-81
2022/10/06 08:48:18;;;;;;;17.00;8.00;;;;;;;15.78;80.80;99821.49;90340;1270;22679;-81
2022/10/06 08:50:32;;;;;;;23.70;7.70;;;;;;;15.91;80.84;99817.44;90110;1271;22566;-80
2022/10/06 08:52:58;;;;;;;16.00;7.20;;;;;;;16.07;80.79;99819.55;90418;1271;98763;-80
2022/10/06 08:55:23;;;;;;;12.40;6.40;;;;;;;16.25;80.52;99823.31;90198;1270;22757;-80
2022/10/06 08:57:36;;;;;;;;;;;;;;;16.38;80.39;99820.24;89912;1271;97749;-79
2022/10/06 08:59:52;;;;;;;12.40;6.10;;;;;;;16.46;80.11;99821.88;89805;1271;22632;-81
2022/10/06 09:01:53;;;;;;;14.10;5.30;;;;;;;16.60;80.20;99819.16;89925;1271;22621;-81
2022/10/06 09:04:01;;;;;;;11.10;5.20;;;;;;;16.75;80.11;99817.73;89901;1271;98738;-80
2022/10/06 09:06:35;;;;;;;8.40;4.80;;;;;;;16.89;80.00;99818.63;89887;1271;22946;-80
2022/10/06 09:09:05;;;;;;;14.60;4.60;;;;;;;17.05;79.82;99815.53;90157;1271;23024;-79
2022/10/06 09:11:30;;;;;;;9.30;4.70;;;;;;;17.24;79.67;99819.70;89887;1271;22715;-80
2022/10/06 09:13:54;;;;;;;8.80;4.10;;;;;;;17.36;79.26;99819.16;89800;1270;22677;-80
2022/10/06 09:16:01;;;;;;;10.40;4.20;;;;;;;17.49;79.10;99826.13;90097;1274;97838;-81
2022/10/06 09:18:09;;;;;;;6.20;4.10;;;;;;;17.59;79.07;99832.61;89686;1271;22660;-80
2022/10/06 09:20:19;;;;;;;6.10;4.00;;;;;;;17.68;78.81;99832.77;90215;1271;22564;-80
2022/10/06 09:22:27;;;;;;;8.00;3.80;;;;;;;17.74;78.56;99835.38;90026;1271;98430;-80
2022/10/06 09:24:41;;;;;;;13.30;4.60;;;;;;;17.79;78.46;99843.47;90083;1274;22566;-80
2022/10/06 09:26:47;;;;;;;7.80;4.40;;;;;;;17.78;78.27;99840.66;89904;1274;23471;-81
2022/10/06 09:28:50;;;;;;;9.80;4.10;;;;;;;17.76;78.32;99843.27;90249;1274;97862;-80
2022/10/06 09:30:52;;;;;;;5.00;4.10;;;;;;;17.73;78.17;99843.48;90267;1274;22623;-80
2022/10/06 09:33:02;;;;;;;25.50;5.10;;;;;;;17.70;78.00;99842.77;90141;1274;22942;-82
2022/10/06 09:35:18;;;;;;;7.50;4.20;;;;;;;17.66;77.90;99845.68;90459;1274;23349;-81
2022/10/06 09:37:22;;;;;;;7.60;3.60;;;;;;;17.66;77.91;99846.92;90472;1271;22595;-80
2022/10/06 09:39:31;;;;;;;6.00;3.90;;;;;;;17.69;78.04;99848.34;90253;1274;98070;-79
2022/10/06 09:41:43;;;;;;;5.90;4.40;;;;;;;17.75;77.86;99848.66;90285;1274;22641;-81
2022/10/06 09:43:57;;;;;;;6.40;4.30;;;;;;;17.80;77.57;99850.98;90102;1274;22570;-80
2022/10/06 09:46:27;;;;;;;8.50;3.70;;;;;;;17.88;77.71;99848.90;90095;1274;98115;-80
2022/10/06 09:48:29;;;;;;;9.90;3.90;;;;;;;18.00;77.64;99854.59;90033;1274;22600;-82
2022/10/06 09:50:31;;;;;;;7.10;3.50;;;;;;;18.11;77.55;99852.24;89976;1270;23117;-81
2022/10/06 09:52:32;;;;;;;10.90;4.40;;;;;;;18.26;77.63;99854.67;89826;1273;98274;-81
2022/10/06 09:54:40;;;;;;;11.30;4.20;;;;;;;18.41;77.56;99846.18;90269;1274;22639;-82
2022/10/06 09:56:46;;;;;;;12.60;4.10;;;;;;;18.61;77.44;99850.02;90023;1272;22665;-81
2022/10/06 09:58:55;;;;;;;15.80;4.20;;;;;;;18.76;77.27;99852.04;89971;1274;98662;-81